Flag for USA

Past Weather in 40°15'33.9"N, 75°37'23.9"W, USA — Yesterday and Last 2 Weeks

Currently: 56 °F. Clear. (Weather station: Pottstown Limerick Airport, USA). See more current weather

Past Weather in 40°15'33.9"N, 75°37'23.9"W — Graph

°F

40°15'33.9"N, 75°37'23.9"W Temperature Yesterday

Maximum temperature yesterday: 73 °F (at 3:54 pm)
Minimum temperature yesterday: 48 °F (at 4:54 am)
Average temperature yesterday: 60 °F

High & Low Weather Summary for the Past Weeks

 TemperatureHumidityPressure
High79 °F (Oct 15, 2:54 pm)100% (Oct 7, 5:54 am)30.35 "Hg (Oct 7, 5:54 am)
Low38 °F (Oct 19, 5:54 am)39% (Oct 19, 4:54 pm)29.61 "Hg (Oct 16, 2:54 pm)
Average60 °F83%30.05 "Hg
* Reported Oct 6 6:54 pm — Oct 21 6:54 pm, 40°15'33.9"N, 75°37'23.9"W. Weather by CustomWeather, © 2021

Note: Actual official high and low records may vary slightly from our data, if they occured in-between our weather recording intervals... More about our weather records

40°15'33.9"N, 75°37'23.9"W Weather History for the Previous 24 Hours

Scroll right to see more
 ConditionsComfort  
Time TempWeatherWind HumidityBarometerVisibility
6:54 pm
Thu, Oct 21
65 °FClear.No wind59%29.87 "Hg7 mi
5:54 pm69 °FSunny.8 mph51%29.88 "Hg6 mi
4:54 pm72 °FSunny.6 mph46%29.88 "Hg6 mi
3:54 pm72 °FSunny.6 mph48%29.89 "Hg6 mi
2:54 pm72 °FSunny.6 mph46%29.93 "Hg6 mi
1:54 pm72 °FSunny.6 mph46%29.96 "Hg6 mi
12:54 pm71 °FSunny.8 mph45%30.00 "Hg6 mi
11:54 am70 °FSunny.8 mph51%30.02 "Hg6 mi
10:54 am64 °FSunny.3 mph65%30.03 "Hg6 mi
9:54 am59 °FSunny.No wind78%30.06 "Hg5 mi
8:54 am53 °FFog.No wind89%30.06 "Hg4 mi
7:54 am46 °FFog.No wind100%30.06 "Hg3 mi
7:38 am45 °FFog.No wind100%30.07 "Hg3 mi
6:54 am45 °FFog.No wind100%30.07 "Hg4 mi
6:31 am44 °FFog.No wind100%30.07 "Hg4 mi
6:20 am45 °FFog.No wind97%30.08 "Hg2 mi
5:54 am45 °FFog.No wind97%30.06 "Hg5 mi
4:54 am47 °FFog.No wind97%30.06 "Hg5 mi
3:54 am46 °FFog.No wind100%30.06 "Hg5 mi
2:54 am48 °FFog.No wind93%30.07 "Hg5 mi
1:54 am49 °FFog.No wind93%30.06 "Hg6 mi
12:54 am49 °FFog.No wind90%30.06 "Hg6 mi
11:54 pm
Wed, Oct 20
51 °FFog.No wind86%30.06 "Hg6 mi
10:54 pm53 °FPassing clouds.No wind83%30.07 "Hg7 mi
9:54 pm58 °FClear.No wind70%30.07 "Hg6 mi
8:54 pm61 °FPassing clouds.3 mph62%30.07 "Hg6 mi
Weather by CustomWeather, © 2021

See weather overview